Погода Эль-Аренална неделю

Идальго, Мексика

28 февраля-05 марта
  • 28февраля
    Сегодня
    +10°
    +30°
    Ясно и безоблачно
    ВремяПогодаТемператураВлажностьДавлениеВетер, м/сВероятность осадков
    00:00Ясно и безоблачно+17°C29 %594 мм1.0 м/с2 %
    03:00Ясно и безоблачно+11°C25 %590 мм1.0 м/с2 %
    06:00Ясно и безоблачно+10°C25 %590 мм1.5 м/с2 %
    09:00Ясно и безоблачно+18°C22 %596 мм1.1 м/с2 %
    12:00Ясно и безоблачно+27°C14 %599 мм2.0 м/с2 %
    15:00Ясно и безоблачно+30°C11 %597 мм3.8 м/с2 %
    18:00Практически безоблачно+25°C30 %597 мм7.0 м/с2 %
    21:00Ясно и безоблачно+19°C71 %598 мм4.6 м/с2 %
  • 29февраля
    Четверг
    +11°
    +28°
    Облачно с прояснениями
    ВремяПогодаТемператураВлажностьДавлениеВетер, м/сВероятность осадков
    00:00Облачно с прояснениями+17°C94 %598 мм2.4 м/с6 %
    03:00Практически безоблачно+14°C95 %597 мм1.0 м/с18 %
    06:00Облачно с прояснениями+12°C99 %595 мм1.2 м/с14 %
    09:00Ясно и безоблачно+14°C66 %597 мм0.8 м/с9 %
    12:00Небольшая облачность+24°C30 %599 мм1.2 м/с3 %
    15:00Облачно с прояснениями+28°C19 %597 мм1.8 м/с6 %
    18:00Облачно с прояснениями+23°C53 %597 мм5.4 м/с15 %
    21:00Небольшая облачность+18°C73 %596 мм2.0 м/с4 %
  • 01марта
    Пятница
    +12°
    +30°
    Облачно с прояснениями
    ВремяПогодаТемператураВлажностьДавлениеВетер, м/сВероятность осадков
    00:00Облачно с прояснениями+18°C77 %597 мм0.2 м/с2 %
    03:00Небольшая облачность+13°C77 %593 мм1.6 м/с2 %
    06:00Практически безоблачно+12°C76 %593 мм1.1 м/с2 %
    09:00Практически безоблачно+18°C46 %597 мм1.5 м/с2 %
    12:00Небольшая облачность+26°C22 %599 мм2.5 м/с2 %
    15:00Облачно с прояснениями+30°C15 %597 мм3.0 м/с5 %
    18:00Небольшая облачность+25°C41 %596 мм6.0 м/с19 %
    21:00Практически безоблачно+19°C62 %596 мм1.4 м/с4 %
  • 02марта
    Суббота
    +12°
    +30°
    Ясно и безоблачно
    ВремяПогодаТемператураВлажностьДавлениеВетер, м/сВероятность осадков
    00:00Ясно и безоблачно+17°C77 %596 мм0.6 м/с2 %
    03:00Ясно и безоблачно+14°C76 %594 мм1.0 м/с2 %
    06:00Ясно и безоблачно+12°C77 %593 мм1.0 м/с2 %
    09:00Ясно и безоблачно+17°C49 %597 мм1.3 м/с2 %
    12:00Ясно и безоблачно+26°C23 %599 мм2.5 м/с2 %
    15:00Ясно и безоблачно+29°C16 %597 мм2.7 м/с2 %
    18:00Ясно и безоблачно+24°C48 %596 мм5.8 м/с11 %
    21:00Ясно и безоблачно+19°C70 %595 мм1.2 м/с2 %
Мы используем cookies
Соглашаюсь